Time;durP1;ratioP1;P1;durP2;ratioP2;P2;SDS_P1;SDS_P2;PMS_P1;PMS_P2;Temp;Humidity;BMP_temperature;BMP_pressure;BME280_temperature;BME280_humidity;BME280_pressure;Samples;Min_cycle;Max_cycle;Signal;HPM_P1;HPM_P2
2023/10/05 00:02:10;;;;;;;10.00;0.80;;;14.80;99.90;;;;;;4982685;28;20038;-71
2023/10/05 00:04:41;;;;;;;7.00;0.90;;;14.80;99.90;;;;;;5002679;28;20095;-70
2023/10/05 00:07:23;;;;;;;2.22;1.00;;;14.70;99.90;;;;;;4998381;28;20378;-70
2023/10/05 00:09:52;;;;;;;5.75;1.15;;;14.70;99.90;;;;;;4995408;28;20161;-72
2023/10/05 00:12:20;;;;;;;7.70;0.82;;;14.70;99.90;;;;;;4996804;28;20056;-70
2023/10/05 00:17:32;;;;;;;10.73;0.65;;;14.70;99.90;;;;;;4998458;28;20038;-71
2023/10/05 00:19:58;;;;;;;3.85;0.75;;;14.70;99.90;;;;;;4998924;28;20529;-71
2023/10/05 00:22:24;;;;;;;10.40;1.98;;;14.70;99.90;;;;;;4998243;28;20058;-71
2023/10/05 00:24:49;;;;;;;8.02;1.20;;;14.70;99.90;;;;;;4999274;28;20176;-70
2023/10/05 00:27:15;;;;;;;11.40;1.40;;;14.70;99.90;;;;;;4998915;28;20034;-72
2023/10/05 00:29:41;;;;;;;8.38;0.90;;;14.70;99.90;;;;;;4996706;28;20123;-71
2023/10/05 00:32:13;;;;;;;7.45;1.02;;;14.70;99.90;;;;;;5000134;28;20046;-71
2023/10/05 00:34:40;;;;;;;9.93;1.40;;;14.70;99.90;;;;;;4996026;28;20351;-73
2023/10/05 00:37:06;;;;;;;11.77;2.38;;;14.80;99.90;;;;;;4986290;28;20041;-70
2023/10/05 00:39:32;;;;;;;5.53;1.00;;;14.70;99.90;;;;;;4996078;28;20050;-71
2023/10/05 00:44:34;;;;;;;3.85;0.70;;;14.80;99.90;;;;;;4999603;28;20402;-71
2023/10/05 00:47:01;;;;;;;4.65;1.00;;;14.80;99.90;;;;;;4980975;28;20479;-70
2023/10/05 00:49:29;;;;;;;4.05;1.00;;;14.70;99.90;;;;;;4996800;28;20034;-74
2023/10/05 00:52:19;;;;;;;6.03;0.70;;;14.70;99.90;;;;;;4979968;28;20108;-72
2023/10/05 00:54:48;;;;;;;4.85;0.60;;;14.70;99.90;;;;;;4995062;28;20039;-71
2023/10/05 00:57:14;;;;;;;13.18;0.95;;;14.70;99.90;;;;;;4991922;28;20509;-72
2023/10/05 00:59:41;;;;;;;3.28;0.93;;;14.70;99.90;;;;;;4977795;28;20037;-70
2023/10/05 01:02:14;;;;;;;8.77;1.08;;;14.70;99.90;;;;;;4998969;28;20077;-70
2023/10/05 01:04:56;;;;;;;9.25;1.83;;;14.70;99.90;;;;;;5001066;28;20430;-70
2023/10/05 01:10:16;;;;;;;8.05;0.90;;;14.60;99.90;;;;;;5001992;28;20033;-70
2023/10/05 01:12:43;;;;;;;9.35;1.70;;;14.60;99.90;;;;;;4994642;28;20046;-70
2023/10/05 01:15:15;;;;;;;6.63;0.60;;;14.60;99.90;;;;;;4982513;28;20037;-71
2023/10/05 01:17:41;;;;;;;5.43;0.77;;;14.60;99.90;;;;;;4985635;28;20126;-71
2023/10/05 01:20:26;;;;;;;5.32;1.10;;;14.70;99.90;;;;;;4999461;28;20117;-71
2023/10/05 01:22:58;;;;;;;9.52;1.63;;;14.60;99.90;;;;;;4979630;28;20073;-70
2023/10/05 01:25:25;;;;;;;6.00;0.85;;;14.60;99.90;;;;;;4982094;28;20045;-72
2023/10/05 01:27:52;;;;;;;7.78;1.10;;;14.60;99.90;;;;;;4981881;28;20034;-69
2023/10/05 01:30:18;;;;;;;5.30;1.20;;;14.70;99.90;;;;;;4985257;28;20038;-72
2023/10/05 01:32:46;;;;;;;10.95;0.77;;;14.70;99.90;;;;;;4995117;28;20553;-70
2023/10/05 01:35:13;;;;;;;4.88;0.70;;;14.60;99.90;;;;;;4981593;28;20030;-71
2023/10/05 01:37:45;;;;;;;3.80;0.85;;;14.60;99.90;;;;;;4994853;28;20049;-72
2023/10/05 01:42:46;;;;;;;7.30;1.15;;;14.50;99.90;;;;;;4998529;28;20504;-70
2023/10/05 01:45:15;;;;;;;4.05;0.70;;;14.60;99.90;;;;;;4995720;28;20046;-72
2023/10/05 01:47:44;;;;;;;7.07;0.93;;;14.60;99.90;;;;;;4980214;28;20502;-71
2023/10/05 01:50:18;;;;;;;3.03;0.70;;;14.60;99.90;;;;;;4978164;28;20042;-71
2023/10/05 01:52:46;;;;;;;4.75;0.88;;;14.60;99.90;;;;;;4980667;28;20072;-71
2023/10/05 01:55:14;;;;;;;11.18;1.65;;;14.60;99.90;;;;;;4977730;28;20038;-70
2023/10/05 01:57:42;;;;;;;3.97;1.45;;;14.60;99.90;;;;;;4998950;28;20125;-72
2023/10/05 02:00:14;;;;;;;5.03;0.73;;;14.50;99.90;;;;;;4982476;28;20038;-70
2023/10/05 02:02:43;;;;;;;5.35;0.77;;;14.60;99.90;;;;;;4981057;28;20029;-71
2023/10/05 02:05:10;;;;;;;4.25;0.88;;;14.60;99.90;;;;;;4981456;28;20046;-70
2023/10/05 02:07:36;;;;;;;10.77;0.98;;;14.50;99.90;;;;;;4995431;28;20671;-70
2023/10/05 02:10:09;;;;;;;2.95;0.50;;;14.50;99.90;;;;;;4999164;28;20049;-73
2023/10/05 02:12:36;;;;;;;2.35;0.95;;;14.50;99.90;;;;;;4972638;28;20071;-70
2023/10/05 02:15:05;;;;;;;5.78;0.75;;;14.50;99.90;;;;;;4977881;28;20042;-71
2023/10/05 02:17:31;;;;;;;5.27;0.70;;;14.40;99.90;;;;;;5000306;28;20038;-70
2023/10/05 02:19:57;;;;;;;4.40;1.20;;;14.40;99.90;;;;;;4977674;28;20034;-70
2023/10/05 02:22:23;;;;;;;3.58;1.00;;;14.50;99.90;;;;;;4978005;28;20810;-72
2023/10/05 02:24:51;;;;;;;8.38;2.08;;;14.50;99.90;;;;;;4979558;28;20064;-71
2023/10/05 02:27:17;;;;;;;3.42;0.82;;;14.50;99.90;;;;;;5007006;28;20181;-71
2023/10/05 02:29:44;;;;;;;10.95;1.02;;;14.50;99.90;;;;;;4997027;28;20038;-71
2023/10/05 02:32:14;;;;;;;11.93;1.67;;;14.50;99.90;;;;;;5002797;28;20052;-71
2023/10/05 02:34:59;;;;;;;5.25;1.20;;;14.50;99.90;;;;;;5000695;28;20402;-72
2023/10/05 02:37:28;;;;;;;2.28;0.60;;;14.50;99.90;;;;;;4979322;28;20127;-72
2023/10/05 02:39:54;;;;;;;5.15;0.93;;;14.50;99.90;;;;;;4995109;28;20034;-70
2023/10/05 02:42:22;;;;;;;8.07;0.75;;;14.50;99.90;;;;;;4997055;28;20046;-71
2023/10/05 02:44:49;;;;;;;2.33;0.45;;;14.50;99.90;;;;;;4995728;28;20722;-71
2023/10/05 02:47:22;;;;;;;5.65;0.77;;;14.50;99.90;;;;;;4979772;28;20080;-71
2023/10/05 02:49:48;;;;;;;5.65;0.73;;;14.50;99.90;;;;;;4978299;28;20467;-70
2023/10/05 02:52:16;;;;;;;9.52;0.90;;;14.50;99.90;;;;;;4997741;28;20131;-71
2023/10/05 02:54:42;;;;;;;9.68;1.30;;;14.50;99.90;;;;;;4998078;28;20038;-71
2023/10/05 02:57:10;;;;;;;5.00;1.00;;;14.50;99.90;;;;;;4977463;28;20324;-71
2023/10/05 02:59:35;;;;;;;5.82;1.30;;;14.50;99.90;;;;;;4994029;28;20026;-71
2023/10/05 03:02:06;;;;;;;2.58;0.68;;;14.40;99.90;;;;;;4997738;28;20532;-72
2023/10/05 03:04:45;;;;;;;3.53;0.85;;;14.40;99.90;;;;;;4980849;28;20180;-72
2023/10/05 03:07:15;;;;;;;4.00;0.60;;;14.40;99.90;;;;;;4980136;28;20034;-70
2023/10/05 03:09:41;;;;;;;6.05;0.93;;;14.30;99.90;;;;;;4980521;28;20034;-71
2023/10/05 03:12:08;;;;;;;3.70;1.27;;;14.30;99.90;;;;;;4976380;28;20499;-71
2023/10/05 03:14:34;;;;;;;3.00;0.57;;;14.30;99.90;;;;;;4997018;28;20061;-72
2023/10/05 03:17:04;;;;;;;5.47;0.80;;;14.30;99.90;;;;;;4980238;28;20072;-72
2023/10/05 03:19:36;;;;;;;;;;;14.20;99.90;;;;;;4979791;28;20030;-70
2023/10/05 03:22:04;;;;;;;3.75;0.80;;;14.20;99.90;;;;;;4994502;28;19918;-71
2023/10/05 03:24:50;;;;;;;3.85;0.93;;;14.20;99.90;;;;;;4993404;28;20045;-70
2023/10/05 03:27:16;;;;;;;3.60;0.82;;;14.20;99.90;;;;;;4995279;28;20038;-72
2023/10/05 03:29:46;;;;;;;3.97;1.17;;;14.10;99.90;;;;;;4978482;28;20045;-71
2023/10/05 03:34:38;;;;;;;6.03;0.93;;;14.00;99.90;;;;;;4994405;28;20034;-70
2023/10/05 03:37:08;;;;;;;5.90;1.02;;;14.00;99.90;;;;;;4983732;28;20041;-72
2023/10/05 03:39:53;;;;;;;8.20;0.93;;;14.00;99.90;;;;;;5000046;28;20506;-72
2023/10/05 03:42:22;;;;;;;3.45;0.70;;;13.90;99.90;;;;;;4978129;28;20133;-72
2023/10/05 03:44:59;;;;;;;6.60;0.75;;;14.00;99.90;;;;;;4978833;28;20042;-70
2023/10/05 03:47:25;;;;;;;4.35;0.90;;;13.90;99.90;;;;;;4979771;28;20677;-71
2023/10/05 03:49:56;;;;;;;4.95;0.82;;;14.00;99.90;;;;;;4980298;28;20034;-71
2023/10/05 03:52:29;;;;;;;3.22;0.80;;;13.90;99.90;;;;;;4981934;28;20035;-72
2023/10/05 03:55:01;;;;;;;4.22;1.27;;;13.90;99.90;;;;;;4983144;28;20069;-70
2023/10/05 03:57:30;;;;;;;6.40;0.88;;;13.90;99.90;;;;;;4998160;28;20081;-70
2023/10/05 03:59:59;;;;;;;7.20;0.98;;;13.90;99.90;;;;;;4982016;28;20037;-71
2023/10/05 04:02:28;;;;;;;4.45;0.95;;;13.90;99.90;;;;;;4980547;28;20049;-71
2023/10/05 04:04:54;;;;;;;4.70;0.90;;;13.90;99.90;;;;;;5001634;28;20635;-70
2023/10/05 04:07:21;;;;;;;6.53;1.00;;;13.90;99.90;;;;;;4981863;28;20141;-71
2023/10/05 04:09:47;;;;;;;3.60;0.90;;;13.90;99.90;;;;;;4980124;28;20037;-70
2023/10/05 04:12:13;;;;;;;4.00;0.90;;;13.90;99.90;;;;;;4996945;28;20053;-71
2023/10/05 04:14:38;;;;;;;3.97;1.13;;;13.80;99.90;;;;;;4979326;28;20027;-71
2023/10/05 04:17:11;;;;;;;3.67;1.08;;;13.80;99.90;;;;;;5005281;28;20057;-72
2023/10/05 04:19:40;;;;;;;4.05;0.85;;;13.80;99.90;;;;;;4979224;28;20465;-72
2023/10/05 04:22:07;;;;;;;7.00;1.38;;;13.80;99.90;;;;;;5000182;28;20030;-71
2023/10/05 04:24:33;;;;;;;5.40;0.90;;;13.80;99.90;;;;;;4978382;28;20511;-71
2023/10/05 04:26:58;;;;;;;7.32;1.20;;;13.80;99.90;;;;;;4994627;28;20524;-71
2023/10/05 04:29:24;;;;;;;4.32;1.38;;;13.80;99.90;;;;;;5001398;28;20465;-70
2023/10/05 04:31:51;;;;;;;7.72;1.13;;;13.80;99.90;;;;;;4997809;28;20077;-71
2023/10/05 04:34:21;;;;;;;2.38;0.50;;;13.80;99.90;;;;;;4979063;28;20038;-71
2023/10/05 04:36:54;;;;;;;4.38;0.70;;;13.80;99.90;;;;;;5002215;28;21850;-70
2023/10/05 04:39:29;;;;;;;3.72;0.98;;;13.80;99.90;;;;;;5000007;28;20034;-72
2023/10/05 04:41:56;;;;;;;8.05;1.30;;;13.80;99.90;;;;;;4999662;28;20350;-71
2023/10/05 04:44:23;;;;;;;6.80;0.80;;;13.70;99.90;;;;;;4997057;28;20046;-71
2023/10/05 04:46:49;;;;;;;6.00;0.82;;;13.70;99.90;;;;;;4984548;28;20057;-70
2023/10/05 04:49:23;;;;;;;8.73;2.40;;;13.70;99.90;;;;;;4980694;28;20065;-72
2023/10/05 04:51:51;;;;;;;6.13;0.73;;;13.70;99.90;;;;;;4990590;28;20029;-71
2023/10/05 04:54:25;;;;;;;10.70;2.40;;;13.70;99.90;;;;;;4997852;28;20038;-71
2023/10/05 04:56:54;;;;;;;8.25;1.15;;;13.70;99.90;;;;;;4981350;28;20037;-71
2023/10/05 05:02:20;;;;;;;5.85;1.15;;;13.70;99.90;;;;;;4974144;28;20053;-71
2023/10/05 05:07:13;;;;;;;4.82;0.70;;;13.70;99.90;;;;;;5000458;28;20101;-70
2023/10/05 05:09:44;;;;;;;3.65;0.85;;;13.70;99.90;;;;;;4997844;28;20030;-72
2023/10/05 05:12:17;;;;;;;8.00;0.98;;;13.70;99.90;;;;;;4979582;28;20038;-71
2023/10/05 05:14:45;;;;;;;7.93;1.20;;;13.70;99.90;;;;;;5009426;28;20036;-72
2023/10/05 05:17:15;;;;;;;4.95;1.20;;;13.70;99.90;;;;;;5001422;28;20054;-71
2023/10/05 05:19:41;;;;;;;5.53;1.25;;;13.70;99.90;;;;;;4996807;28;20566;-71
2023/10/05 05:22:08;;;;;;;4.32;0.98;;;13.70;99.90;;;;;;4980673;28;20120;-70
2023/10/05 05:24:35;;;;;;;8.73;1.90;;;13.80;99.90;;;;;;4981597;28;20040;-72
2023/10/05 05:27:03;;;;;;;6.72;0.90;;;13.80;99.90;;;;;;4984641;28;20038;-71
2023/10/05 05:29:30;;;;;;;10.35;1.20;;;13.80;99.90;;;;;;4981113;28;20200;-71
2023/10/05 05:31:56;;;;;;;6.68;2.50;;;13.80;99.90;;;;;;4999342;28;20049;-71
2023/10/05 05:34:25;;;;;;;3.45;0.73;;;13.70;99.90;;;;;;4981861;28;20551;-72
2023/10/05 05:36:56;;;;;;;3.00;0.85;;;13.70;99.90;;;;;;4980639;28;20049;-71
2023/10/05 05:39:23;;;;;;;3.85;1.20;;;13.70;99.90;;;;;;4999549;28;20042;-70
2023/10/05 05:41:56;;;;;;;5.45;1.45;;;13.70;99.90;;;;;;4995286;28;20046;-71
2023/10/05 05:44:22;;;;;;;4.63;1.15;;;13.70;99.90;;;;;;4998979;28;20030;-73
2023/10/05 05:46:49;;;;;;;4.82;0.88;;;13.70;99.90;;;;;;4978040;28;20030;-70
2023/10/05 05:49:16;;;;;;;3.58;0.98;;;13.70;99.90;;;;;;4997925;28;20430;-70
2023/10/05 05:51:43;;;;;;;5.25;1.05;;;13.60;99.90;;;;;;5004188;28;20030;-71
2023/10/05 05:54:10;;;;;;;9.50;1.13;;;13.60;99.90;;;;;;4982203;28;20117;-71
2023/10/05 05:56:36;;;;;;;10.35;1.38;;;13.60;99.90;;;;;;4978095;28;20023;-70
2023/10/05 05:59:02;;;;;;;7.72;1.00;;;13.60;99.90;;;;;;4979796;28;20049;-72
2023/10/05 06:01:28;;;;;;;8.48;1.23;;;13.60;99.90;;;;;;4994237;28;20030;-76
2023/10/05 06:03:54;;;;;;;4.97;1.63;;;13.60;99.90;;;;;;4999038;28;20041;-72
2023/10/05 06:06:20;;;;;;;7.30;1.23;;;13.60;99.90;;;;;;4984202;28;20084;-71
2023/10/05 06:08:49;;;;;;;2.72;0.85;;;13.60;99.90;;;;;;4980232;28;20044;-73
2023/10/05 06:11:15;;;;;;;6.68;1.05;;;13.60;99.90;;;;;;4998109;28;20057;-70
2023/10/05 06:13:42;;;;;;;9.57;1.55;;;13.60;99.90;;;;;;4996022;28;20033;-70
2023/10/05 06:16:09;;;;;;;11.23;1.30;;;13.60;99.90;;;;;;4979343;28;20084;-72
2023/10/05 06:18:38;;;;;;;3.47;0.77;;;13.60;99.90;;;;;;4988824;28;20041;-72
2023/10/05 06:21:07;;;;;;;6.15;1.40;;;13.60;99.90;;;;;;4980611;28;20041;-71
2023/10/05 06:23:36;;;;;;;10.60;1.92;;;13.60;99.90;;;;;;4999275;28;20030;-70
2023/10/05 06:26:02;;;;;;;13.40;1.00;;;13.60;99.90;;;;;;4985039;28;20033;-71
2023/10/05 06:28:28;;;;;;;3.55;0.80;;;13.60;99.90;;;;;;4981350;28;20034;-70
2023/10/05 06:30:54;;;;;;;5.65;1.08;;;13.70;99.90;;;;;;4977232;28;20471;-71
2023/10/05 06:33:20;;;;;;;4.55;1.33;;;13.70;99.90;;;;;;4983275;28;20093;-71
2023/10/05 06:35:46;;;;;;;8.05;0.90;;;13.70;99.90;;;;;;4979024;28;20045;-72
2023/10/05 06:38:12;;;;;;;10.05;1.55;;;13.70;99.90;;;;;;4978548;28;20816;-71
2023/10/05 06:40:38;;;;;;;4.53;1.48;;;13.70;99.90;;;;;;4983103;28;20045;-72
2023/10/05 06:43:05;;;;;;;7.95;1.00;;;13.80;99.90;;;;;;4977227;28;20441;-71
2023/10/05 06:45:31;;;;;;;3.58;1.10;;;13.80;99.90;;;;;;4977246;28;20034;-70
2023/10/05 06:47:57;;;;;;;9.45;1.50;;;13.80;99.90;;;;;;4980407;28;20034;-72
2023/10/05 06:50:23;;;;;;;5.57;1.27;;;13.90;99.90;;;;;;4981823;28;20049;-71
2023/10/05 06:52:49;;;;;;;10.30;1.42;;;13.90;99.90;;;;;;4997555;28;20046;-72
2023/10/05 06:55:17;;;;;;;7.13;1.38;;;13.90;99.90;;;;;;4979297;28;20047;-70
2023/10/05 06:57:43;;;;;;;8.45;1.08;;;13.90;99.90;;;;;;4993597;28;20045;-72
2023/10/05 07:00:16;;;;;;;5.82;1.60;;;14.00;99.90;;;;;;4996854;28;20081;-71
2023/10/05 07:02:43;;;;;;;5.95;1.30;;;14.00;99.90;;;;;;4995804;28;20053;-71
2023/10/05 07:05:09;;;;;;;7.97;1.30;;;14.10;99.90;;;;;;4996028;28;20129;-71
2023/10/05 07:07:35;;;;;;;7.82;0.88;;;14.10;99.90;;;;;;4976959;28;20045;-72
2023/10/05 07:10:03;;;;;;;3.05;0.90;;;14.10;99.90;;;;;;4980098;28;20376;-70
2023/10/05 07:12:30;;;;;;;5.47;0.93;;;14.10;99.90;;;;;;4977083;28;20046;-71
2023/10/05 07:14:56;;;;;;;14.52;2.40;;;14.10;99.90;;;;;;4998167;28;20034;-69
2023/10/05 07:17:22;;;;;;;5.53;1.10;;;14.20;99.90;;;;;;5002751;28;20521;-71
2023/10/05 07:19:49;;;;;;;9.77;1.42;;;14.20;99.90;;;;;;4981273;28;20128;-71
2023/10/05 07:22:16;;;;;;;7.03;1.27;;;14.30;99.90;;;;;;5008732;28;20035;-73
2023/10/05 07:24:42;;;;;;;5.13;1.05;;;14.30;99.90;;;;;;4998558;28;20079;-72
2023/10/05 07:27:07;;;;;;;5.13;0.93;;;14.30;99.90;;;;;;4985332;28;20384;-70
2023/10/05 07:29:34;;;;;;;4.82;1.25;;;14.40;99.90;;;;;;4980611;28;20061;-69
2023/10/05 07:32:00;;;;;;;3.20;1.00;;;14.40;99.90;;;;;;5005576;28;20046;-73
2023/10/05 07:34:26;;;;;;;4.93;1.00;;;14.50;99.90;;;;;;5006598;28;20044;-69
2023/10/05 07:36:52;;;;;;;7.57;2.03;;;14.50;99.90;;;;;;4992406;28;20426;-73
2023/10/05 07:39:18;;;;;;;5.47;1.27;;;14.60;99.90;;;;;;5008727;28;20175;-70
2023/10/05 07:41:46;;;;;;;5.20;1.40;;;14.60;99.90;;;;;;4996754;28;20041;-71
2023/10/05 07:44:11;;;;;;;2.95;0.75;;;14.60;99.90;;;;;;5011614;28;20034;-72
2023/10/05 07:46:38;;;;;;;5.40;1.33;;;14.70;99.90;;;;;;4987276;28;20030;-71
2023/10/05 07:49:04;;;;;;;5.57;1.55;;;14.70;99.90;;;;;;4995153;28;20034;-71
2023/10/05 07:51:30;;;;;;;4.10;1.10;;;14.80;99.90;;;;;;5012354;28;20033;-71
2023/10/05 07:53:58;;;;;;;4.60;1.13;;;14.80;99.90;;;;;;5002727;28;20038;-70
2023/10/05 07:56:24;;;;;;;7.20;0.90;;;14.90;99.90;;;;;;5006480;28;20030;-71
2023/10/05 07:58:50;;;;;;;8.98;1.13;;;15.00;99.90;;;;;;4978686;28;20030;-71
2023/10/05 08:01:17;;;;;;;5.10;1.38;;;15.10;99.90;;;;;;4972400;28;20033;-70
2023/10/05 08:03:43;;;;;;;6.75;1.30;;;15.10;99.90;;;;;;4990464;28;20046;-71
2023/10/05 08:06:14;;;;;;;17.25;2.42;;;15.20;99.90;;;;;;4978842;28;20037;-71
2023/10/05 08:08:41;;;;;;;6.10;1.60;;;15.30;99.90;;;;;;5002463;28;20040;-71
2023/10/05 08:11:07;;;;;;;15.25;3.30;;;15.40;99.90;;;;;;5001275;28;20035;-71
2023/10/05 08:13:33;;;;;;;4.72;1.25;;;15.40;99.90;;;;;;5000789;28;20057;-71
2023/10/05 08:15:58;;;;;;;8.05;1.50;;;15.50;99.90;;;;;;5002307;28;20030;-71
2023/10/05 08:18:25;;;;;;;3.58;0.82;;;15.70;99.90;;;;;;4989319;28;20113;-71
2023/10/05 08:20:51;;;;;;;3.58;0.80;;;15.70;99.90;;;;;;4979220;28;20035;-72
2023/10/05 08:23:17;;;;;;;7.63;0.95;;;15.80;99.90;;;;;;5000440;28;20056;-70
2023/10/05 08:25:42;;;;;;;8.32;1.90;;;15.80;99.90;;;;;;5000533;28;20065;-69
2023/10/05 08:28:10;;;;;;;3.25;1.02;;;15.90;99.90;;;;;;5019520;28;20042;-71
2023/10/05 08:30:45;;;;;;;5.20;0.93;;;15.90;99.90;;;;;;4976191;28;20085;-72
2023/10/05 08:33:19;;;;;;;4.30;1.20;;;15.90;99.90;;;;;;4995926;28;20056;-72
2023/10/05 08:35:44;;;;;;;5.22;1.02;;;16.00;99.90;;;;;;4996535;28;20050;-71
2023/10/05 08:38:15;;;;;;;4.82;0.80;;;16.10;99.90;;;;;;4981700;28;20045;-71
2023/10/05 08:40:42;;;;;;;6.05;1.45;;;16.10;99.90;;;;;;4996709;28;20406;-71
2023/10/05 08:43:10;;;;;;;3.92;1.50;;;16.10;99.90;;;;;;5001143;28;20026;-70
2023/10/05 08:45:51;;;;;;;5.85;0.93;;;16.30;99.90;;;;;;4978502;28;20026;-71
2023/10/05 08:48:20;;;;;;;8.23;1.42;;;16.30;99.90;;;;;;4993289;28;20045;-70
2023/10/05 08:50:51;;;;;;;10.88;2.03;;;16.30;99.90;;;;;;4985594;28;20038;-69
2023/10/05 08:53:19;;;;;;;6.32;0.98;;;16.30;99.90;;;;;;4971043;28;20042;-70
2023/10/05 08:55:47;;;;;;;4.35;1.33;;;16.30;99.90;;;;;;4999240;28;20073;-73
2023/10/05 08:58:18;;;;;;;2.92;1.10;;;16.30;99.90;;;;;;4996075;28;20034;-70
2023/10/05 09:00:45;;;;;;;8.57;1.65;;;16.30;99.90;;;;;;4982703;28;20183;-70
2023/10/05 09:03:29;;;;;;;4.43;1.20;;;16.20;99.90;;;;;;4985784;28;20045;-70
2023/10/05 09:08:54;;;;;;;7.00;1.65;;;16.10;99.90;;;;;;4998714;28;20524;-70
2023/10/05 09:11:33;;;;;;;4.15;1.52;;;16.10;99.90;;;;;;4982458;28;20038;-70
2023/10/05 09:16:41;;;;;;;4.72;0.88;;;16.10;99.90;;;;;;4999667;28;20750;-71
2023/10/05 09:19:15;;;;;;;7.95;1.15;;;16.10;99.90;;;;;;4995601;28;20133;-70
2023/10/05 09:21:50;;;;;;;8.23;1.75;;;16.10;99.90;;;;;;4998576;28;20065;-70
2023/10/05 09:24:20;;;;;;;4.45;1.45;;;16.10;99.90;;;;;;4995701;28;20038;-70
2023/10/05 09:27:17;;;;;;;4.87;0.93;;;16.10;99.90;;;;;;4999855;28;20043;-69
2023/10/05 09:29:44;;;;;;;6.00;1.20;;;16.10;99.90;;;;;;4979906;28;20046;-71
2023/10/05 09:32:36;;;;;;;12.65;1.05;;;16.10;99.90;;;;;;4975636;28;20525;-71
2023/10/05 09:35:03;;;;;;;5.85;0.90;;;16.20;99.90;;;;;;4994494;28;20469;-71
2023/10/05 09:37:33;;;;;;;2.25;0.60;;;16.20;99.90;;;;;;4985663;28;20030;-72
2023/10/05 09:40:00;;;;;;;7.03;1.33;;;16.20;99.90;;;;;;4988085;28;20085;-70
2023/10/05 09:42:26;;;;;;;4.45;1.55;;;16.30;99.90;;;;;;4996785;28;20034;-71
2023/10/05 09:44:53;;;;;;;8.70;1.02;;;16.30;99.90;;;;;;4977728;28;20054;-72
2023/10/05 09:47:27;;;;;;;7.35;1.30;;;16.30;99.90;;;;;;4984189;28;20038;-70
2023/10/05 09:50:10;;;;;;;7.53;1.00;;;16.40;99.90;;;;;;4979937;28;20038;-70
2023/10/05 09:52:37;;;;;;;6.00;0.82;;;16.40;99.90;;;;;;4982159;28;20034;-69
2023/10/05 09:55:07;;;;;;;4.57;1.13;;;16.50;99.90;;;;;;4986001;28;20108;-71
2023/10/05 09:57:46;;;;;;;6.65;1.35;;;16.50;99.90;;;;;;4980281;28;20597;-72
2023/10/05 10:00:47;;;;;;;7.25;0.90;;;16.50;99.90;;;;;;4999760;28;20088;-71
2023/10/05 10:03:17;;;;;;;5.22;0.93;;;16.50;99.90;;;;;;4975844;28;20487;-71
2023/10/05 10:05:51;;;;;;;7.10;1.33;;;16.60;99.90;;;;;;4994083;28;20056;-73
2023/10/05 10:08:28;;;;;;;15.18;1.73;;;16.70;99.90;;;;;;4994779;28;20724;-71
2023/10/05 10:11:06;;;;;;;4.55;1.05;;;16.80;99.90;;;;;;4977363;28;20907;-71
2023/10/05 10:13:40;;;;;;;4.95;0.80;;;16.80;99.90;;;;;;4996809;28;20057;-70
2023/10/05 10:16:22;;;;;;;6.15;1.75;;;16.90;99.90;;;;;;4993953;28;20042;-69
2023/10/05 10:18:52;;;;;;;10.52;1.58;;;17.00;99.90;;;;;;4993922;28;20038;-71
2023/10/05 10:21:25;;;;;;;6.53;1.35;;;17.10;99.90;;;;;;4978675;28;20506;-72
2023/10/05 10:24:01;;;;;;;3.30;1.75;;;17.10;99.90;;;;;;5000253;28;20441;-72
2023/10/05 10:26:27;;;;;;;7.28;1.40;;;17.10;99.90;;;;;;4979109;28;20076;-70
2023/10/05 10:31:26;;;;;;;7.25;1.45;;;17.20;99.90;;;;;;4994710;28;20046;-71
2023/10/05 10:33:52;;;;;;;6.30;1.08;;;17.20;99.90;;;;;;4995488;28;20038;-72
2023/10/05 10:36:23;;;;;;;7.85;1.00;;;17.30;99.90;;;;;;4994814;28;20034;-71
2023/10/05 10:38:50;;;;;;;3.85;0.90;;;17.40;99.90;;;;;;4975884;28;20031;-71
2023/10/05 10:41:17;;;;;;;4.47;1.48;;;17.30;99.90;;;;;;4998244;28;20042;-71
2023/10/05 10:43:49;;;;;;;6.53;1.33;;;17.30;99.90;;;;;;5000592;28;20034;-71
2023/10/05 10:46:29;;;;;;;4.57;0.50;;;17.40;99.90;;;;;;4978907;28;20125;-71
2023/10/05 10:48:59;;;;;;;6.75;1.13;;;17.30;99.90;;;;;;4983525;28;20050;-72
2023/10/05 10:51:37;;;;;;;5.93;1.57;;;17.20;99.90;;;;;;5010491;28;20061;-71
2023/10/05 10:54:14;;;;;;;6.57;1.05;;;17.20;99.90;;;;;;5001385;28;20042;-72
2023/10/05 10:56:44;;;;;;;6.15;1.77;;;17.20;99.90;;;;;;4978953;28;20042;-71
2023/10/05 10:59:13;;;;;;;6.28;1.10;;;17.20;99.90;;;;;;4987697;28;20032;-71
2023/10/05 11:01:43;;;;;;;5.60;1.95;;;17.20;99.90;;;;;;4996758;28;20113;-71
2023/10/05 11:04:26;;;;;;;5.72;0.80;;;17.30;99.90;;;;;;4979920;28;20030;-71
2023/10/05 11:07:05;;;;;;;5.40;1.00;;;17.30;99.90;;;;;;4983574;28;20042;-72
2023/10/05 11:09:35;;;;;;;5.60;0.82;;;17.30;99.90;;;;;;5000223;28;20494;-72
2023/10/05 11:12:11;;;;;;;12.38;1.80;;;17.40;99.90;;;;;;4979281;28;20038;-69
2023/10/05 11:14:38;;;;;;;5.72;1.35;;;17.40;99.90;;;;;;5000755;28;20037;-70
2023/10/05 11:17:11;;;;;;;8.70;1.15;;;17.40;99.90;;;;;;4982038;28;20484;-71
2023/10/05 11:19:38;;;;;;;5.25;0.90;;;17.30;99.90;;;;;;5001231;28;20054;-70
2023/10/05 11:22:06;;;;;;;4.50;1.17;;;17.20;99.90;;;;;;4981904;28;20041;-70
2023/10/05 11:24:37;;;;;;;7.00;1.40;;;17.20;99.90;;;;;;4996231;28;20042;-71
2023/10/05 11:29:28;;;;;;;6.22;0.95;;;17.30;99.90;;;;;;4998373;28;20042;-71
2023/10/05 11:32:01;;;;;;;6.80;0.90;;;17.30;99.90;;;;;;4997419;28;20065;-70
2023/10/05 11:34:29;;;;;;;3.97;0.85;;;17.40;99.90;;;;;;4980872;28;20060;-72
2023/10/05 11:36:58;;;;;;;10.07;1.20;;;17.40;99.90;;;;;;5003990;28;20037;-71
2023/10/05 11:39:27;;;;;;;11.27;1.38;;;17.50;99.90;;;;;;4981088;28;20406;-71
2023/10/05 11:41:56;;;;;;;2.38;0.80;;;17.50;99.90;;;;;;4995260;28;20045;-71
2023/10/05 11:44:25;;;;;;;4.63;1.50;;;17.60;99.90;;;;;;5000989;28;20037;-71
2023/10/05 11:46:54;;;;;;;3.30;0.63;;;17.70;99.90;;;;;;4996740;28;20045;-69
2023/10/05 11:49:30;;;;;;;5.80;0.90;;;17.70;99.90;;;;;;4981203;28;20030;-70
2023/10/05 11:51:56;;;;;;;4.72;1.45;;;17.80;99.90;;;;;;5004335;28;20508;-72
2023/10/05 11:54:30;;;;;;;1.92;0.88;;;17.90;99.90;;;;;;4980341;28;20060;-71
2023/10/05 11:56:59;;;;;;;6.25;1.00;;;17.90;99.90;;;;;;4980777;28;20041;-70
2023/10/05 11:59:35;;;;;;;3.40;0.73;;;18.00;99.90;;;;;;5012282;28;20044;-72
2023/10/05 12:02:01;;;;;;;4.57;1.85;;;18.00;99.90;;;;;;4986863;28;20049;-72
2023/10/05 12:04:27;;;;;;;4.30;0.63;;;18.10;99.90;;;;;;4981817;28;20030;-72
2023/10/05 12:06:59;;;;;;;3.08;0.70;;;18.10;99.90;;;;;;5011672;28;20038;-71
2023/10/05 12:09:32;;;;;;;7.70;1.65;;;18.10;99.90;;;;;;5001899;28;20778;-70
2023/10/05 12:11:58;;;;;;;4.38;0.88;;;18.30;99.90;;;;;;4979945;28;20066;-71
2023/10/05 12:14:25;;;;;;;4.65;0.85;;;18.20;99.90;;;;;;4989634;28;20029;-70
2023/10/05 12:16:56;;;;;;;5.43;0.77;;;18.20;99.90;;;;;;4981681;28;20045;-72
2023/10/05 12:19:27;;;;;;;7.05;0.93;;;18.10;99.90;;;;;;4979089;28;20065;-71
2023/10/05 12:21:53;;;;;;;8.57;0.90;;;18.10;99.90;;;;;;4998737;28;20091;-70
2023/10/05 12:24:19;;;;;;;2.45;0.70;;;18.10;99.90;;;;;;4983491;28;20041;-71
2023/10/05 12:26:44;;;;;;;8.27;2.35;;;18.10;99.90;;;;;;5007994;28;20038;-72
2023/10/05 12:29:13;;;;;;;3.80;1.13;;;18.10;99.90;;;;;;4997230;28;20483;-70
2023/10/05 12:31:44;;;;;;;4.25;1.35;;;18.00;99.90;;;;;;5002693;28;20107;-70
2023/10/05 12:34:14;;;;;;;3.63;0.88;;;17.90;99.90;;;;;;4975724;28;20034;-71
2023/10/05 12:36:51;;;;;;;5.43;0.82;;;17.80;99.90;;;;;;4977702;28;20030;-71
2023/10/05 12:39:17;;;;;;;4.55;1.00;;;17.80;99.90;;;;;;4995215;28;20035;-71
2023/10/05 12:41:49;;;;;;;7.32;0.82;;;17.80;99.90;;;;;;4997194;28;20035;-71
2023/10/05 12:44:15;;;;;;;3.88;0.75;;;17.80;99.90;;;;;;4999737;28;20044;-71
2023/10/05 12:46:48;;;;;;;4.40;0.80;;;17.80;99.90;;;;;;4981140;28;20108;-71
2023/10/05 12:49:15;;;;;;;5.32;1.00;;;17.80;99.90;;;;;;4997396;28;20030;-71
2023/10/05 12:51:44;;;;;;;4.30;0.80;;;17.80;99.90;;;;;;4997950;28;20114;-71
2023/10/05 12:54:34;;;;;;;4.90;0.98;;;17.90;99.90;;;;;;4978464;28;20109;-70
2023/10/05 12:56:57;;;;;;;5.70;1.30;;;17.90;99.90;;;;;;4995420;28;20030;-71
2023/10/05 12:59:24;;;;;;;6.00;0.90;;;18.10;99.90;;;;;;4996200;28;20097;-71
2023/10/05 13:01:50;;;;;;;5.40;0.98;;;18.20;99.90;;;;;;4998898;28;20437;-70
2023/10/05 13:04:17;;;;;;;7.45;0.75;;;18.30;99.90;;;;;;4979738;28;20034;-72
2023/10/05 13:06:44;;;;;;;5.38;1.20;;;18.40;99.90;;;;;;4999501;28;20042;-72
2023/10/05 13:09:18;;;;;;;6.00;1.02;;;18.50;99.90;;;;;;4980896;28;20042;-69
2023/10/05 13:11:47;;;;;;;6.38;1.27;;;18.70;99.90;;;;;;4995000;28;20060;-70
2023/10/05 13:14:14;;;;;;;4.38;0.80;;;18.70;99.90;;;;;;4978447;28;20108;-71
2023/10/05 13:16:51;;;;;;;6.90;1.00;;;18.80;99.90;;;;;;5002607;28;20033;-71
2023/10/05 13:19:18;;;;;;;10.32;1.38;;;18.80;99.90;;;;;;4998949;28;20041;-70
2023/10/05 13:21:44;;;;;;;4.53;0.77;;;18.80;99.90;;;;;;4981111;28;20035;-71
2023/10/05 13:24:11;;;;;;;7.18;1.20;;;18.70;99.90;;;;;;4979795;28;20045;-70
2023/10/05 13:26:44;;;;;;;4.25;0.93;;;18.70;99.90;;;;;;5006018;28;20097;-70